CheckWX is a tool to help pilots better visualize weather data.  It is not intended as a substitute for an official pre-flight weather briefing.

21:37:18 UTC

LATI TAF
Tirana International Mother Teresa Airport
Tirana, Albania
TAF LATI 161700Z 1618/1718 VRB04KT 9999 SCT080 BKN150 TEMPO 1710/1717 30012KT SCT030CB

Jun-16@
18:00 UTC

Jun-16 @ 18:00 UTC

Jun-17@
18:00 UTC

Jun-17 @ 18:00 UTC

TAF LATI 161700Z 1618/1718 VRB04KT 9999 SCT080 BKN150
Wind
  • Variable at 4 KTS
Cloud Levels
  • Scattered at 8,000' AGL
  • Broken at 15,000' AGL

Jun-17@
10:00 UTC

Jun-17 @ 10:00 UTC

Jun-17@
17:00 UTC

Jun-17 @ 17:00 UTC

TEMPO 1710/1717 30012KT SCT030CB

Temporary

Temporary Changes expected for less than half the time period

Wind
  • 300° at 12 KTS
Cloud Levels
  • Scattered at 3,000' AGL